Aviation Digital Data Service (ADDS)

Output produced by METARs form (1819 UTC 24 June 2019)
found at http://www.aviationweather.gov/metar/data/
 
Forecast for: DIBK (BOUAKE (CIV/MIL), CI)
Text: TAF DIBK 241210Z 2412/2512 20008KT 9999 BKN013
Forecast period: 1200 to 2200 UTC 24 June 2019
Forecast type: FROM: standard forecast or significant change
Winds: from the SSW (200 degrees) at 9 MPH (8 knots; 4.1 m/s)
Visibility: 6 or more miles 10+ km)
Ceiling: 1300 feet AGL
Clouds: broken clouds at 1300 feet AGL
Weather: no significant weather forecast for this period
Text: BECMG 2422/2423 SCT013
Forecast period: 2200 UTC 24 June 2019 to 1200 UTC 25 June 2019
Forecast type: BECOMING: Conditions expected to become as follows by 2300 UTC 24 June 2019
Winds: from the SSW (200 degrees) at 9 MPH (8 knots; 4.1 m/s)
Visibility: 6 or more miles 10+ km)
Ceiling: at least 12,000 feet AGL
Clouds: scattered clouds at 1300 feet AGL
Weather: no significant weather forecast for this period